Blue Image — 3EXO5 — position and weather

sailwx.info

Track history (hours):
 
Tides and Currents Weather Stations Pressure Air Temp Water Temp Dewpoint Dewpoint Depression Visibility Wind Speed Wind Dir Waves Ship Positions

Blue Image

Last reported at 2015-Jun-09 17:33 UTC. Time now 2015-Jul-06 04:59 UTC.
Position N 35°58' W 005°34'.
Warning: this ship's position is 26 days out of date.

Length 160 m; draft 8.4 m.

Type: Cargo ship. MMSI: 351960000.

Date/timePositionNaut miles runAvg speedWind from/ knotsBaromVisibWave heightAir tempDewpointWater temp
2015-Jun-09 17:33N 35°58' W 005°34'1110.8
2015-Jun-09 16:33N 36°01' W 005°21'13411.8
2015-Jun-09 05:14N 36°17' W 002°37'913.4
2015-Jun-09 04:33N 36°17' W 002°25'1313.4
2015-Jun-09 03:33N 36°17' W 002°09'1313.0
2015-Jun-09 02:33N 36°18' W 001°53'3912.9
2015-Jun-08 23:31N 36°20' W 001°04'1313.0
2015-Jun-08 22:33N 36°23' W 000°49'1312.5
2015-Jun-08 21:33N 36°26' W 000°34'1212.5
2015-Jun-08 20:33N 36°30' W 000°19'1312.8
2015-Jun-08 19:33N 36°34' W 000°04'1312.6
2015-Jun-08 18:34N 36°38' E 000°11'1212.4
2015-Jun-08 17:33N 36°42' E 000°25'1212.3
2015-Jun-08 16:33N 36°45' E 000°40'1312.3
2015-Jun-08 15:31N 36°49' E 000°55'1212.5
2015-Jun-08 14:33N 36°53' E 001°10'1312.6
2015-Jun-08 13:33N 36°56' E 001°25'1312.5
2015-Jun-08 12:33N 37°00' E 001°40'1412.5
2015-Jun-08 11:25N 37°04' E 001°57'5212.3
2015-Jun-08 07:13N 37°11' E 003°01'1312.4
2015-Jun-08 06:11N 37°13' E 003°17'812.4
2015-Jun-08 05:32N 37°14' E 003°27'8812.4
2015-Jun-07 22:24N 37°25' E 005°17'3012.9
2015-Jun-07 20:05N 37°28' E 005°54'2113.7
2015-Jun-07 18:32N 37°31' E 006°21'1313.3
2015-Jun-07 17:33N 37°32' E 006°37'1413.0
2015-Jun-07 16:31N 37°34' E 006°54'1212.6
2015-Jun-07 15:33N 37°36' E 007°09'1812.7
2015-Jun-07 14:10N 37°37' E 007°31'2212.9
2015-Jun-07 12:26N 37°40' E 007°59'1513.2
2015-Jun-07 11:17N 37°41' E 008°18'1013.6
2015-Jun-07 10:33N 37°42' E 008°31'1413.3
2015-Jun-07 09:32N 37°43' E 008°48'1312.7
2015-Jun-07 08:33N 37°44' E 009°04'1312.5
2015-Jun-07 07:33N 37°43' E 009°20'1312.7
2015-Jun-07 06:33N 37°41' E 009°35'9712.1
2015-Jun-06 22:32N 37°18' E 011°35'3912.7
2015-Jun-06 19:25N 37°02' E 012°20'1312.2
2015-Jun-06 18:23N 36°58' E 012°35'1012.3
2015-Jun-06 17:33N 36°55' E 012°47'1312.6
2015-Jun-06 16:33N 36°52' E 013°02'1212.2
2015-Jun-06 15:33N 36°48' E 013°17'1212.4
2015-Jun-06 14:33N 36°44' E 013°31'1212.4
2015-Jun-06 13:33N 36°40' E 013°46'1312.4
2015-Jun-06 12:33N 36°36' E 014°01'1312.8
2015-Jun-06 11:33N 36°33' E 014°16'1312.8
2015-Jun-06 10:33N 36°29' E 014°31'1312.5
2015-Jun-06 09:33N 36°27' E 014°46'43111.6
2015-Jun-04 20:26N 37°09' E 023°42'1112.5
2015-Jun-04 19:33N 37°20' E 023°42'1212.4
2015-Jun-04 18:33N 37°33' E 023°42'1211.7
2015-Jun-04 17:33N 37°44' E 023°39'1110.8
2015-Jun-04 16:33N 37°54' E 023°33'0 0.2
2015-Jun-04 15:33N 37°54' E 023°33'0 0.0
2015-Jun-04 14:33N 37°54' E 023°33'0 0.0
2015-Jun-04 13:33N 37°54' E 023°33'0 0.0
2015-Jun-04 12:32N 37°54' E 023°33'0 0.0
2015-Jun-04 11:33N 37°54' E 023°33'0 0.0
2015-Jun-04 10:33N 37°54' E 023°33'0 0.0
2015-Jun-04 09:31N 37°54' E 023°33'0 0.0
2015-Jun-04 08:31N 37°54' E 023°33'0 0.0
2015-Jun-04 07:32N 37°54' E 023°33'0 0.0
2015-Jun-04 06:32N 37°54' E 023°33'0 0.0
2015-Jun-04 05:32N 37°54' E 023°33'0 0.0
2015-Jun-04 04:32N 37°54' E 023°33'4 3.9
2015-Jun-04 03:33N 37°52' E 023°37'1212.1
2015-Jun-04 02:33N 37°41' E 023°45'1311.4
2015-Jun-04 01:22N 37°37' E 024°01'1412.8
2015-Jun-04 00:15N 37°43' E 024°17'1013.6
2015-Jun-03 23:30N 37°50' E 024°27'  
Track history (hours):
 
Tides and Currents Weather Stations Pressure Air Temp Water Temp Dewpoint Dewpoint Depression Visibility Wind Speed Wind Dir Waves Ship Positions

Blue Image

Last reported at 2015-Jun-09 17:33 UTC. Time now 2015-Jul-06 05:00 UTC.
Position N 35°58' W 005°34'.
Warning: this ship's position is 26 days out of date.

Length 160 m; draft 8.4 m.

Type: Cargo ship. MMSI: 351960000.

Date/timePositionNaut miles runAvg speedWind from/ knotsBaromVisibWave heightAir tempDewpointWater temp
2015-Jun-09 17:33N 35°58' W 005°34'1110.8
2015-Jun-09 16:33N 36°01' W 005°21'13411.8
2015-Jun-09 05:14N 36°17' W 002°37'913.4
2015-Jun-09 04:33N 36°17' W 002°25'1313.4
2015-Jun-09 03:33N 36°17' W 002°09'1313.0
2015-Jun-09 02:33N 36°18' W 001°53'3912.9
2015-Jun-08 23:31N 36°20' W 001°04'1313.0
2015-Jun-08 22:33N 36°23' W 000°49'1312.5
2015-Jun-08 21:33N 36°26' W 000°34'1212.5
2015-Jun-08 20:33N 36°30' W 000°19'1312.8
2015-Jun-08 19:33N 36°34' W 000°04'1312.6
2015-Jun-08 18:34N 36°38' E 000°11'1212.4
2015-Jun-08 17:33N 36°42' E 000°25'1212.3
2015-Jun-08 16:33N 36°45' E 000°40'1312.3
2015-Jun-08 15:31N 36°49' E 000°55'1212.5
2015-Jun-08 14:33N 36°53' E 001°10'1312.6
2015-Jun-08 13:33N 36°56' E 001°25'1312.5
2015-Jun-08 12:33N 37°00' E 001°40'1412.5
2015-Jun-08 11:25N 37°04' E 001°57'5212.3
2015-Jun-08 07:13N 37°11' E 003°01'1312.4
2015-Jun-08 06:11N 37°13' E 003°17'812.4
2015-Jun-08 05:32N 37°14' E 003°27'8812.4
2015-Jun-07 22:24N 37°25' E 005°17'3012.9
2015-Jun-07 20:05N 37°28' E 005°54'2113.7
2015-Jun-07 18:32N 37°31' E 006°21'1313.3
2015-Jun-07 17:33N 37°32' E 006°37'1413.0
2015-Jun-07 16:31N 37°34' E 006°54'1212.6
2015-Jun-07 15:33N 37°36' E 007°09'1812.7
2015-Jun-07 14:10N 37°37' E 007°31'2212.9
2015-Jun-07 12:26N 37°40' E 007°59'1513.2
2015-Jun-07 11:17N 37°41' E 008°18'1013.6
2015-Jun-07 10:33N 37°42' E 008°31'1413.3
2015-Jun-07 09:32N 37°43' E 008°48'1312.7
2015-Jun-07 08:33N 37°44' E 009°04'1312.5
2015-Jun-07 07:33N 37°43' E 009°20'1312.7
2015-Jun-07 06:33N 37°41' E 009°35'9712.1
2015-Jun-06 22:32N 37°18' E 011°35'3912.7
2015-Jun-06 19:25N 37°02' E 012°20'1312.2
2015-Jun-06 18:23N 36°58' E 012°35'1012.3
2015-Jun-06 17:33N 36°55' E 012°47'1312.6
2015-Jun-06 16:33N 36°52' E 013°02'1212.2
2015-Jun-06 15:33N 36°48' E 013°17'1212.4
2015-Jun-06 14:33N 36°44' E 013°31'1212.4
2015-Jun-06 13:33N 36°40' E 013°46'1312.4
2015-Jun-06 12:33N 36°36' E 014°01'1312.8
2015-Jun-06 11:33N 36°33' E 014°16'1312.8
2015-Jun-06 10:33N 36°29' E 014°31'1312.5
2015-Jun-06 09:33N 36°27' E 014°46'43111.6
2015-Jun-04 20:26N 37°09' E 023°42'1112.5
2015-Jun-04 19:33N 37°20' E 023°42'1212.4
2015-Jun-04 18:33N 37°33' E 023°42'1211.7
2015-Jun-04 17:33N 37°44' E 023°39'1110.8
2015-Jun-04 16:33N 37°54' E 023°33'0 0.2
2015-Jun-04 15:33N 37°54' E 023°33'0 0.0
2015-Jun-04 14:33N 37°54' E 023°33'0 0.0
2015-Jun-04 13:33N 37°54' E 023°33'0 0.0
2015-Jun-04 12:32N 37°54' E 023°33'0 0.0
2015-Jun-04 11:33N 37°54' E 023°33'0 0.0
2015-Jun-04 10:33N 37°54' E 023°33'0 0.0
2015-Jun-04 09:31N 37°54' E 023°33'0 0.0
2015-Jun-04 08:31N 37°54' E 023°33'0 0.0
2015-Jun-04 07:32N 37°54' E 023°33'0 0.0
2015-Jun-04 06:32N 37°54' E 023°33'0 0.0
2015-Jun-04 05:32N 37°54' E 023°33'0 0.0
2015-Jun-04 04:32N 37°54' E 023°33'4 3.9
2015-Jun-04 03:33N 37°52' E 023°37'1212.1
2015-Jun-04 02:33N 37°41' E 023°45'1311.4
2015-Jun-04 01:22N 37°37' E 024°01'1412.8
2015-Jun-04 00:15N 37°43' E 024°17'1013.6
2015-Jun-03 23:30N 37°50' E 024°27'  

Dump ship's entire track history